Time;durP1;ratioP1;P1;durP2;ratioP2;P2;SDS_P1;SDS_P2;PMS_P1;PMS_P2;Temp;Humidity;BMP_temperature;BMP_pressure;BME280_temperature;BME280_humidity;BME280_pressure;Samples;Min_cycle;Max_cycle;Signal;HPM_P1;HPM_P2
2021/09/04 00:01:22;;;;;;;25.45;18.33;;;;;;;;;;5072889;28;20103;-74
2021/09/04 00:03:48;;;;;;;22.92;16.83;;;;;;;;;;5073160;28;20112;-74
2021/09/04 00:06:14;;;;;;;21.60;17.30;;;;;;;;;;5072646;28;20472;-74
2021/09/04 00:08:42;;;;;;;19.80;15.07;;;;;;;;;;5072811;28;20029;-74
2021/09/04 00:11:08;;;;;;;19.52;14.30;;;;;;;;;;5073055;28;20504;-74
2021/09/04 00:13:34;;;;;;;16.55;13.90;;;;;;;;;;5072761;28;20371;-73
2021/09/04 00:16:00;;;;;;;19.85;14.80;;;;;;;;;;5072789;28;20086;-74
2021/09/04 00:18:29;;;;;;;19.33;15.98;;;;;;;;;;5073018;28;20029;-74
2021/09/04 00:20:55;;;;;;;25.67;16.67;;;;;;;;;;5072766;28;20025;-75
2021/09/04 00:23:21;;;;;;;20.10;15.90;;;;;;;;;;5072694;28;20032;-74
2021/09/04 00:25:47;;;;;;;22.85;18.35;;;;;;;;;;5072652;28;20501;-74
2021/09/04 00:28:13;;;;;;;25.60;20.20;;;;;;;;;;5072630;28;20031;-75
2021/09/04 00:30:39;;;;;;;23.48;18.20;;;;;;;;;;5072527;28;20016;-74
2021/09/04 00:33:05;;;;;;;20.27;16.05;;;;;;;;;;5071289;28;20051;-75
2021/09/04 00:35:31;;;;;;;22.15;17.10;;;;;;;;;;5072586;28;20059;-74
2021/09/04 00:37:57;;;;;;;20.40;15.60;;;;;;;;;;5072536;28;20027;-74
2021/09/04 00:40:23;;;;;;;21.52;17.88;;;;;;;;;;5072823;28;20025;-74
2021/09/04 00:42:49;;;;;;;20.95;15.80;;;;;;;;;;5075246;28;20436;-75
2021/09/04 00:45:15;;;;;;;20.63;16.35;;;;;;;;;;5076416;28;20074;-74
2021/09/04 00:48:01;;;;;;;23.05;16.10;;;;;;;;;;5076095;28;20086;-73
2021/09/04 00:50:27;;;;;;;20.60;14.90;;;;;;;;;;5076224;28;20028;-74
2021/09/04 00:52:54;;;;;;;19.05;14.82;;;;;;;;;;5076278;28;20020;-73
2021/09/04 00:55:21;;;;;;;21.50;15.40;;;;;;;;;;5075968;28;20023;-73
2021/09/04 00:57:47;;;;;;;20.35;14.55;;;;;;;;;;5075843;28;20027;-74
2021/09/04 01:00:13;;;;;;;25.70;16.80;;;;;;;;;;5075905;28;20478;-73
2021/09/04 01:02:39;;;;;;;22.13;16.75;;;;;;;;;;5076130;28;20025;-74
2021/09/04 01:05:06;;;;;;;22.00;15.27;;;;;;;;;;5075790;28;20028;-74
2021/09/04 01:07:32;;;;;;;21.58;16.63;;;;;;;;;;5075977;28;20052;-74
2021/09/04 01:09:58;;;;;;;23.48;17.48;;;;;;;;;;5075642;28;20032;-74
2021/09/04 01:12:24;;;;;;;21.30;16.48;;;;;;;;;;5075694;28;20031;-74
2021/09/04 01:14:50;;;;;;;22.83;17.48;;;;;;;;;;5075622;28;20107;-74
2021/09/04 01:17:16;;;;;;;21.92;16.77;;;;;;;;;;5075596;28;20024;-74
2021/09/04 01:19:42;;;;;;;21.88;16.73;;;;;;;;;;5075514;28;20020;-73
2021/09/04 01:22:09;;;;;;;21.55;16.15;;;;;;;;;;5075494;28;20116;-73
2021/09/04 01:24:35;;;;;;;21.08;15.98;;;;;;;;;;5075718;28;20497;-74
2021/09/04 01:27:01;;;;;;;21.60;15.90;;;;;;;;;;5075413;28;20028;-73
2021/09/04 01:29:27;;;;;;;21.60;17.02;;;;;;;;;;5075551;28;20470;-73
2021/09/04 01:31:53;;;;;;;23.50;15.07;;;;;;;;;;5075558;28;20025;-74
2021/09/04 01:34:19;;;;;;;18.13;14.80;;;;;;;;;;5075549;28;20020;-74
2021/09/04 01:36:45;;;;;;;18.77;14.43;;;;;;;;;;5075469;28;20024;-73
2021/09/04 01:39:12;;;;;;;18.95;14.77;;;;;;;;;;5075157;28;20020;-74
2021/09/04 01:41:40;;;;;;;21.85;15.48;;;;;;;;;;5075126;28;20029;-73
2021/09/04 01:44:06;;;;;;;21.50;15.60;;;;;;;;;;5075085;28;20027;-74
2021/09/04 01:46:34;;;;;;;19.88;15.63;;;;;;;;;;5075280;28;20032;-73
2021/09/04 01:49:00;;;;;;;19.65;14.88;;;;;;;;;;5075287;28;20027;-74
2021/09/04 01:51:26;;;;;;;20.45;14.95;;;;;;;;;;5075161;28;20029;-74
2021/09/04 01:53:52;;;;;;;18.75;15.43;;;;;;;;;;5073917;28;20222;-74
2021/09/04 01:56:18;;;;;;;19.05;14.77;;;;;;;;;;5073584;28;20035;-74
2021/09/04 01:58:46;;;;;;;20.00;15.45;;;;;;;;;;5073387;28;20452;-73
2021/09/04 02:01:12;;;;;;;21.30;15.55;;;;;;;;;;5074761;28;20081;-74
2021/09/04 02:03:38;;;;;;;18.52;14.93;;;;;;;;;;5074708;28;20036;-73
2021/09/04 02:06:04;;;;;;;19.98;15.68;;;;;;;;;;5074887;28;20028;-74
2021/09/04 02:08:31;;;;;;;19.05;15.57;;;;;;;;;;5072828;28;20048;-74
2021/09/04 02:10:57;;;;;;;21.02;15.73;;;;;;;;;;5074748;28;20107;-74
2021/09/04 02:13:23;;;;;;;19.00;15.82;;;;;;;;;;5074495;28;20020;-73
2021/09/04 02:15:49;;;;;;;20.60;15.68;;;;;;;;;;5074430;28;20025;-74
2021/09/04 02:18:15;;;;;;;22.38;15.82;;;;;;;;;;5074332;28;20025;-73
2021/09/04 02:20:41;;;;;;;22.17;16.23;;;;;;;;;;5074320;28;20466;-73
2021/09/04 02:23:07;;;;;;;18.20;14.50;;;;;;;;;;5074239;28;20025;-74
2021/09/04 02:25:35;;;;;;;17.75;13.85;;;;;;;;;;5074513;28;20029;-74
2021/09/04 02:28:01;;;;;;;21.25;16.13;;;;;;;;;;5074439;28;20028;-74
2021/09/04 02:30:27;;;;;;;21.55;15.32;;;;;;;;;;5074053;28;20029;-74
2021/09/04 02:32:53;;;;;;;17.35;13.50;;;;;;;;;;5074102;28;20024;-73
2021/09/04 02:35:20;;;;;;;19.55;14.77;;;;;;;;;;5074060;28;20052;-73
2021/09/04 02:37:46;;;;;;;20.70;14.68;;;;;;;;;;5073960;28;20025;-74
2021/09/04 02:40:12;;;;;;;20.65;15.38;;;;;;;;;;5073916;28;20035;-74
2021/09/04 02:42:38;;;;;;;18.52;14.93;;;;;;;;;;5073885;28;20086;-73
2021/09/04 02:45:04;;;;;;;18.02;14.40;;;;;;;;;;5074085;28;20024;-74
2021/09/04 02:47:31;;;;;;;19.13;14.07;;;;;;;;;;5074088;28;20029;-74
2021/09/04 02:49:57;;;;;;;17.83;13.88;;;;;;;;;;5073678;28;20082;-74
2021/09/04 02:52:22;;;;;;;17.08;14.00;;;;;;;;;;5073738;28;20017;-73
2021/09/04 02:54:48;;;;;;;18.90;13.88;;;;;;;;;;5073702;28;20039;-73
2021/09/04 02:57:15;;;;;;;21.38;15.25;;;;;;;;;;5072399;28;20031;-74
2021/09/04 02:59:41;;;;;;;18.30;14.77;;;;;;;;;;5074078;28;20024;-74
2021/09/04 03:02:07;;;;;;;19.58;14.15;;;;;;;;;;5073602;28;20032;-73
2021/09/04 03:04:33;;;;;;;17.95;14.65;;;;;;;;;;5073392;28;20020;-74
2021/09/04 03:06:59;;;;;;;19.30;15.40;;;;;;;;;;5073301;28;20383;-73
2021/09/04 03:09:25;;;;;;;17.67;14.15;;;;;;;;;;5073689;28;20032;-74
2021/09/04 03:11:51;;;;;;;21.17;14.80;;;;;;;;;;5073426;28;20025;-74
2021/09/04 03:14:17;;;;;;;21.15;15.32;;;;;;;;;;5073430;28;20025;-74
2021/09/04 03:16:43;;;;;;;19.88;15.32;;;;;;;;;;5073355;28;20023;-73
2021/09/04 03:19:09;;;;;;;21.17;15.63;;;;;;;;;;5073627;28;20029;-74
2021/09/04 03:21:35;;;;;;;20.33;15.48;;;;;;;;;;5073324;28;20417;-73
2021/09/04 03:24:01;;;;;;;17.83;14.82;;;;;;;;;;5073330;28;20032;-74
2021/09/04 03:26:27;;;;;;;17.70;14.07;;;;;;;;;;5073259;28;20032;-73
2021/09/04 03:28:53;;;;;;;18.27;14.18;;;;;;;;;;5073493;28;20091;-73
2021/09/04 03:31:19;;;;;;;21.40;14.82;;;;;;;;;;5073086;28;20033;-73
2021/09/04 03:33:45;;;;;;;18.77;13.88;;;;;;;;;;5073224;28;20490;-73
2021/09/04 03:36:11;;;;;;;19.98;15.45;;;;;;;;;;5073138;28;20016;-73
2021/09/04 03:38:37;;;;;;;18.30;14.45;;;;;;;;;;5073108;28;20153;-73
2021/09/04 03:41:03;;;;;;;18.55;15.82;;;;;;;;;;5073135;28;20107;-73
2021/09/04 03:43:29;;;;;;;18.92;15.27;;;;;;;;;;5073106;28;20033;-73
2021/09/04 03:45:55;;;;;;;18.90;14.18;;;;;;;;;;5073335;28;20028;-74
2021/09/04 03:48:22;;;;;;;17.55;14.15;;;;;;;;;;5073032;28;20028;-73
2021/09/04 03:50:48;;;;;;;21.73;15.00;;;;;;;;;;5073011;28;20032;-73
2021/09/04 03:53:14;;;;;;;20.63;15.80;;;;;;;;;;5073033;28;20063;-74
2021/09/04 03:55:40;;;;;;;20.25;16.20;;;;;;;;;;5072989;28;20103;-73
2021/09/04 03:58:06;;;;;;;21.08;15.82;;;;;;;;;;5072908;28;20025;-74
2021/09/04 04:00:32;;;;;;;22.27;15.50;;;;;;;;;;5073510;28;20116;-73
2021/09/04 04:02:58;;;;;;;18.90;14.15;;;;;;;;;;5073227;28;20021;-73
2021/09/04 04:05:24;;;;;;;17.60;13.25;;;;;;;;;;5072903;28;20036;-73
2021/09/04 04:07:50;;;;;;;15.88;13.13;;;;;;;;;;5071395;28;20406;-73
2021/09/04 04:10:16;;;;;;;16.00;12.30;;;;;;;;;;5073004;28;20115;-74
2021/09/04 04:12:42;;;;;;;16.77;12.35;;;;;;;;;;5072809;28;20021;-73
2021/09/04 04:15:08;;;;;;;16.90;12.25;;;;;;;;;;5073069;28;20097;-74
2021/09/04 04:17:34;;;;;;;15.90;12.60;;;;;;;;;;5075580;28;20020;-73
2021/09/04 04:20:00;;;;;;;16.70;12.60;;;;;;;;;;5076633;28;20075;-73
2021/09/04 04:22:26;;;;;;;15.98;12.70;;;;;;;;;;5076636;28;20103;-73
2021/09/04 04:24:52;;;;;;;19.95;13.82;;;;;;;;;;5076553;28;20032;-73
2021/09/04 04:27:18;;;;;;;19.10;14.80;;;;;;;;;;5076489;28;20108;-73
2021/09/04 04:29:44;;;;;;;19.15;13.70;;;;;;;;;;5076404;28;20453;-73
2021/09/04 04:32:10;;;;;;;19.23;13.73;;;;;;;;;;5076420;28;20025;-73
2021/09/04 04:34:36;;;;;;;16.13;12.90;;;;;;;;;;5076635;28;20051;-73
2021/09/04 04:37:02;;;;;;;17.08;13.40;;;;;;;;;;5076273;28;20020;-73
2021/09/04 04:39:28;;;;;;;19.92;14.23;;;;;;;;;;5076257;28;20112;-74
2021/09/04 04:41:54;;;;;;;16.85;13.00;;;;;;;;;;5076584;28;20059;-73
2021/09/04 04:44:20;;;;;;;20.67;12.68;;;;;;;;;;5076266;28;20108;-73
2021/09/04 04:46:46;;;;;;;18.40;12.90;;;;;;;;;;5076465;28;20454;-73
2021/09/04 04:49:12;;;;;;;18.90;13.10;;;;;;;;;;5076098;28;20049;-73
2021/09/04 04:51:38;;;;;;;18.88;13.95;;;;;;;;;;5075984;28;20486;-73
2021/09/04 04:54:05;;;;;;;19.70;15.25;;;;;;;;;;5076287;28;20103;-73
2021/09/04 04:56:31;;;;;;;21.08;15.00;;;;;;;;;;5076238;28;20489;-73
2021/09/04 04:58:57;;;;;;;20.52;15.23;;;;;;;;;;5076194;28;20021;-73
2021/09/04 05:01:23;;;;;;;22.17;15.13;;;;;;;;;;5076178;28;20103;-73
2021/09/04 05:03:49;;;;;;;22.83;15.43;;;;;;;;;;5076090;28;20438;-73
2021/09/04 05:06:15;;;;;;;20.55;16.02;;;;;;;;;;5075599;28;20102;-74
2021/09/04 05:08:41;;;;;;;23.70;15.98;;;;;;;;;;5075724;28;20396;-74
2021/09/04 05:11:07;;;;;;;22.98;17.40;;;;;;;;;;5075616;28;20021;-74
2021/09/04 05:13:33;;;;;;;24.23;18.02;;;;;;;;;;5075955;28;20032;-73
2021/09/04 05:15:59;;;;;;;26.17;18.67;;;;;;;;;;5076184;28;20469;-73
2021/09/04 05:18:25;;;;;;;20.20;15.43;;;;;;;;;;5075592;28;20021;-73
2021/09/04 05:20:52;;;;;;;18.33;13.38;;;;;;;;;;5074315;28;20081;-73
2021/09/04 05:23:19;;;;;;;20.30;14.90;;;;;;;;;;5074288;28;20042;-73
2021/09/04 05:25:45;;;;;;;21.77;14.82;;;;;;;;;;5075525;28;20020;-73
2021/09/04 05:28:11;;;;;;;19.05;15.10;;;;;;;;;;5075393;28;20039;-73
2021/09/04 05:30:37;;;;;;;19.77;15.32;;;;;;;;;;5075310;28;20020;-73
2021/09/04 05:33:03;;;;;;;19.08;14.90;;;;;;;;;;5075330;28;20032;-73
2021/09/04 05:35:29;;;;;;;20.27;14.85;;;;;;;;;;5075279;28;20028;-73
2021/09/04 05:37:55;;;;;;;16.83;13.73;;;;;;;;;;5075508;28;20021;-73
2021/09/04 05:40:21;;;;;;;17.77;14.07;;;;;;;;;;5073909;28;20024;-73
2021/09/04 05:42:47;;;;;;;19.92;13.73;;;;;;;;;;5075433;28;20036;-73
2021/09/04 05:45:13;;;;;;;22.27;15.57;;;;;;;;;;5075367;28;20390;-73
2021/09/04 05:47:39;;;;;;;22.73;15.95;;;;;;;;;;5075007;28;20031;-73
2021/09/04 05:50:06;;;;;;;19.50;14.43;;;;;;;;;;5075197;28;20024;-73
2021/09/04 05:52:32;;;;;;;18.90;14.27;;;;;;;;;;5075182;28;20024;-73
2021/09/04 05:54:58;;;;;;;23.52;15.60;;;;;;;;;;5074919;28;20016;-73
2021/09/04 05:57:24;;;;;;;24.10;16.65;;;;;;;;;;5074841;28;20020;-73
2021/09/04 05:59:50;;;;;;;19.98;15.00;;;;;;;;;;5074758;28;20021;-73
2021/09/04 06:02:16;;;;;;;22.15;15.23;;;;;;;;;;5075054;28;20029;-73
2021/09/04 06:04:42;;;;;;;21.40;15.45;;;;;;;;;;5074726;28;20043;-73
2021/09/04 06:07:09;;;;;;;19.85;14.90;;;;;;;;;;5074667;28;20056;-73
2021/09/04 06:09:34;;;;;;;17.83;13.30;;;;;;;;;;5073209;28;20025;-73
2021/09/04 06:12:00;;;;;;;22.58;15.43;;;;;;;;;;5074536;28;20584;-73
2021/09/04 06:14:27;;;;;;;21.17;14.70;;;;;;;;;;5074504;28;20093;-73
2021/09/04 06:16:53;;;;;;;21.25;15.45;;;;;;;;;;5074448;28;20021;-73
2021/09/04 06:19:20;;;;;;;23.50;15.65;;;;;;;;;;5074655;28;20129;-73
2021/09/04 06:21:46;;;;;;;26.70;15.65;;;;;;;;;;5074611;28;20052;-73
2021/09/04 06:24:12;;;;;;;32.80;16.95;;;;;;;;;;5074280;28;20021;-73
2021/09/04 06:26:38;;;;;;;31.17;18.15;;;;;;;;;;5074215;28;20039;-73
2021/09/04 06:29:04;;;;;;;37.78;19.88;;;;;;;;;;5074465;28;20020;-73
2021/09/04 06:31:30;;;;;;;36.53;20.98;;;;;;;;;;5074023;28;20479;-73
2021/09/04 06:33:56;;;;;;;36.25;22.38;;;;;;;;;;5074143;28;20062;-73
2021/09/04 06:36:22;;;;;;;39.20;22.50;;;;;;;;;;5074065;28;20070;-74
2021/09/04 06:38:48;;;;;;;34.92;22.33;;;;;;;;;;5072459;28;20464;-73
2021/09/04 06:41:14;;;;;;;34.10;21.75;;;;;;;;;;5072540;28;20039;-73
2021/09/04 06:43:40;;;;;;;37.13;21.02;;;;;;;;;;5074197;28;20050;-73
2021/09/04 06:46:06;;;;;;;34.42;19.38;;;;;;;;;;5073861;28;20025;-73
2021/09/04 06:48:32;;;;;;;35.22;19.75;;;;;;;;;;5073819;28;20025;-73
2021/09/04 06:50:58;;;;;;;31.20;19.83;;;;;;;;;;5073720;28;20551;-73
2021/09/04 06:53:24;;;;;;;27.75;18.73;;;;;;;;;;5073781;28;20027;-73
2021/09/04 06:55:50;;;;;;;35.70;19.58;;;;;;;;;;5073713;28;20016;-73
2021/09/04 06:58:16;;;;;;;37.65;22.52;;;;;;;;;;5072328;28;20028;-73
2021/09/04 07:00:42;;;;;;;31.60;22.17;;;;;;;;;;5073601;28;20036;-73
2021/09/04 07:03:08;;;;;;;32.40;22.20;;;;;;;;;;5073848;28;20029;-72
2021/09/04 07:05:34;;;;;;;30.48;21.77;;;;;;;;;;5073812;28;20024;-73
2021/09/04 07:08:01;;;;;;;33.58;22.13;;;;;;;;;;5073348;28;20102;-73
2021/09/04 07:10:27;;;;;;;32.53;22.67;;;;;;;;;;5073474;28;20063;-73
2021/09/04 07:12:53;;;;;;;29.02;22.00;;;;;;;;;;5072145;28;20042;-73
2021/09/04 07:15:19;;;;;;;29.73;21.42;;;;;;;;;;5072122;28;20031;-73
2021/09/04 07:17:45;;;;;;;33.67;23.33;;;;;;;;;;5073654;28;20074;-73
2021/09/04 07:20:11;;;;;;;32.92;23.73;;;;;;;;;;5073612;28;20059;-73
2021/09/04 07:22:38;;;;;;;38.65;23.33;;;;;;;;;;5073887;28;20089;-73
2021/09/04 07:25:04;;;;;;;34.05;24.15;;;;;;;;;;5073599;28;20024;-73
2021/09/04 07:27:30;;;;;;;35.03;24.50;;;;;;;;;;5073856;28;20032;-73
2021/09/04 07:29:56;;;;;;;30.90;23.23;;;;;;;;;;5071885;28;20028;-73
2021/09/04 07:32:22;;;;;;;34.83;25.65;;;;;;;;;;5073494;28;20036;-73
2021/09/04 07:34:48;;;;;;;32.58;23.92;;;;;;;;;;5073499;28;20521;-73
2021/09/04 07:37:14;;;;;;;43.10;25.88;;;;;;;;;;5073163;28;20025;-74
2021/09/04 07:39:40;;;;;;;35.15;25.60;;;;;;;;;;5073135;28;20611;-73
2021/09/04 07:42:06;;;;;;;34.42;25.20;;;;;;;;;;5073140;28;20020;-73
2021/09/04 07:44:32;;;;;;;34.10;25.60;;;;;;;;;;5073367;28;20013;-73
2021/09/04 07:46:58;;;;;;;35.70;25.13;;;;;;;;;;5073297;28;20036;-73
2021/09/04 07:49:24;;;;;;;34.78;25.13;;;;;;;;;;5073037;28;20131;-73
2021/09/04 07:51:50;;;;;;;36.30;26.33;;;;;;;;;;5074349;28;20021;-73
2021/09/04 07:54:16;;;;;;;35.40;25.27;;;;;;;;;;5077477;28;20021;-73
2021/09/04 07:56:42;;;;;;;32.83;23.40;;;;;;;;;;5077079;28;20028;-73
2021/09/04 07:59:08;;;;;;;35.42;26.20;;;;;;;;;;5077015;28;20097;-73
2021/09/04 08:01:34;;;;;;;35.35;25.42;;;;;;;;;;5077581;28;20501;-73
2021/09/04 08:04:00;;;;;;;35.03;26.45;;;;;;;;;;5077256;28;20025;-73
2021/09/04 08:06:26;;;;;;;37.85;25.55;;;;;;;;;;5076721;28;20051;-73
2021/09/04 08:08:52;;;;;;;39.65;28.25;;;;;;;;;;5076692;28;20025;-73
2021/09/04 08:11:19;;;;;;;37.72;27.85;;;;;;;;;;5076269;28;20082;-73
2021/09/04 08:13:45;;;;;;;36.63;27.45;;;;;;;;;;5076260;28;20021;-73
2021/09/04 08:16:11;;;;;;;38.67;28.58;;;;;;;;;;5075451;28;20508;-73
2021/09/04 08:18:37;;;;;;;38.67;27.58;;;;;;;;;;5075474;28;20055;-73
2021/09/04 08:21:04;;;;;;;38.70;28.45;;;;;;;;;;5076687;28;20032;-73
2021/09/04 08:23:30;;;;;;;40.85;28.17;;;;;;;;;;5076605;28;20036;-73
2021/09/04 08:25:56;;;;;;;41.00;29.52;;;;;;;;;;5076593;28;20036;-73
2021/09/04 08:28:22;;;;;;;42.15;29.15;;;;;;;;;;5075575;28;20021;-73
2021/09/04 08:30:49;;;;;;;41.35;29.73;;;;;;;;;;5074876;28;20498;-73
2021/09/04 08:33:15;;;;;;;42.20;29.05;;;;;;;;;;5076439;28;20020;-73
2021/09/04 08:35:41;;;;;;;35.35;26.70;;;;;;;;;;5075116;28;20021;-73
2021/09/04 08:38:07;;;;;;;36.17;27.55;;;;;;;;;;5076313;28;20028;-73
2021/09/04 08:40:43;;;;;;;41.45;28.45;;;;;;;;;;5076348;28;20027;-73
2021/09/04 08:43:09;;;;;;;38.60;28.73;;;;;;;;;;5076257;28;20024;-73
2021/09/04 08:45:36;;;;;;;42.65;29.83;;;;;;;;;;5076456;28;20033;-73
2021/09/04 08:48:03;;;;;;;41.28;29.23;;;;;;;;;;5076371;28;20021;-74
2021/09/04 08:50:29;;;;;;;36.35;27.85;;;;;;;;;;5076220;28;20071;-73
2021/09/04 08:52:56;;;;;;;37.00;28.45;;;;;;;;;;5076016;28;20096;-73
2021/09/04 08:55:22;;;;;;;40.53;29.48;;;;;;;;;;5075895;28;20029;-73
2021/09/04 08:57:49;;;;;;;40.03;29.88;;;;;;;;;;5075844;28;20024;-73
2021/09/04 09:00:28;;;;;;;39.45;30.60;;;;;;;;;;5075349;28;20056;-73
2021/09/04 09:02:54;;;;;;;43.00;31.58;;;;;;;;;;5075661;28;20020;-73
2021/09/04 09:05:20;;;;;;;40.22;29.52;;;;;;;;;;5076266;28;20477;-73
2021/09/04 09:07:47;;;;;;;40.90;29.92;;;;;;;;;;5075294;28;20048;-73
2021/09/04 09:10:22;;;;;;;40.22;30.40;;;;;;;;;;5074416;28;20154;-74
2021/09/04 09:12:49;;;;;;;43.65;30.70;;;;;;;;;;5075669;28;20020;-73
2021/09/04 09:15:21;;;;;;;38.50;29.33;;;;;;;;;;5075409;28;20025;-73
2021/09/04 09:18:07;;;;;;;41.08;29.77;;;;;;;;;;5075854;28;20056;-73
2021/09/04 09:20:33;;;;;;;40.45;29.10;;;;;;;;;;5075713;28;20028;-73
2021/09/04 09:23:12;;;;;;;40.83;28.65;;;;;;;;;;5075510;28;20036;-73
2021/09/04 09:25:40;;;;;;;41.55;30.08;;;;;;;;;;5075772;28;20039;-73
2021/09/04 09:28:11;;;;;;;42.90;30.52;;;;;;;;;;5075772;28;20027;-73
2021/09/04 09:30:43;;;;;;;43.45;30.85;;;;;;;;;;5075339;28;20025;-73
2021/09/04 09:33:10;;;;;;;37.20;27.58;;;;;;;;;;5075334;28;20454;-73
2021/09/04 09:35:41;;;;;;;39.10;30.00;;;;;;;;;;5075578;28;20089;-73
2021/09/04 09:38:08;;;;;;;44.15;30.58;;;;;;;;;;5075285;28;20473;-73
2021/09/04 09:40:35;;;;;;;39.45;28.30;;;;;;;;;;5075176;28;20025;-73
2021/09/04 09:43:01;;;;;;;43.15;30.33;;;;;;;;;;5075392;28;20025;-73
2021/09/04 09:45:44;;;;;;;38.25;28.40;;;;;;;;;;5075319;28;20032;-73
2021/09/04 09:48:10;;;;;;;41.90;30.75;;;;;;;;;;5073803;28;20029;-73
2021/09/04 09:50:36;;;;;;;41.45;30.63;;;;;;;;;;5074925;28;20497;-73
2021/09/04 09:53:03;;;;;;;40.60;28.63;;;;;;;;;;5074961;28;20074;-73
2021/09/04 09:55:30;;;;;;;37.80;28.38;;;;;;;;;;5073635;28;20051;-73
2021/09/04 09:57:59;;;;;;;37.33;27.75;;;;;;;;;;5074816;28;20039;-73
2021/09/04 10:00:28;;;;;;;37.63;28.23;;;;;;;;;;5074856;28;20036;-73
2021/09/04 10:02:58;;;;;;;36.47;28.88;;;;;;;;;;5074808;28;20445;-73
2021/09/04 10:05:26;;;;;;;35.35;26.38;;;;;;;;;;5073498;28;20032;-73
2021/09/04 10:07:53;;;;;;;35.70;26.23;;;;;;;;;;5074407;28;20414;-73
2021/09/04 10:10:20;;;;;;;33.55;27.27;;;;;;;;;;5074552;28;20024;-73
2021/09/04 10:12:47;;;;;;;36.50;28.10;;;;;;;;;;5074634;28;20470;-73
2021/09/04 10:15:13;;;;;;;33.53;26.40;;;;;;;;;;5073939;28;20021;-73
2021/09/04 10:17:40;;;;;;;30.67;25.83;;;;;;;;;;5074112;28;20029;-73
2021/09/04 10:20:06;;;;;;;30.85;26.05;;;;;;;;;;5072105;28;20025;-73
2021/09/04 10:22:32;;;;;;;30.65;24.65;;;;;;;;;;5074324;28;20504;-73
2021/09/04 10:25:02;;;;;;;32.60;25.40;;;;;;;;;;5074344;28;20024;-73
2021/09/04 10:27:35;;;;;;;30.63;25.15;;;;;;;;;;5056517;28;20025;-73
2021/09/04 10:30:20;;;;;;;27.33;24.02;;;;;;;;;;5054190;28;20025;-73
2021/09/04 10:33:18;;;;;;;29.35;24.45;;;;;;;;;;5054446;28;20017;-73
2021/09/04 10:35:45;;;;;;;28.20;22.55;;;;;;;;;;5058868;28;20043;-77
2021/09/04 10:38:11;;;;;;;29.83;23.67;;;;;;;;;;5074213;28;20025;-74
2021/09/04 10:40:37;;;;;;;29.13;24.58;;;;;;;;;;5074154;28;20035;-75
2021/09/04 10:43:08;;;;;;;25.95;21.70;;;;;;;;;;5080136;28;20545;-74
2021/09/04 10:45:36;;;;;;;29.02;21.70;;;;;;;;;;5052370;28;20021;-73
2021/09/04 10:48:12;;;;;;;26.73;21.77;;;;;;;;;;5054748;28;20079;-75
2021/09/04 10:50:38;;;;;;;26.20;22.00;;;;;;;;;;5052450;28;20036;-74
2021/09/04 10:53:07;;;;;;;26.13;20.73;;;;;;;;;;5052773;28;20108;-73
2021/09/04 10:55:38;;;;;;;31.52;24.17;;;;;;;;;;5052169;28;20023;-74
2021/09/04 10:58:08;;;;;;;32.47;23.20;;;;;;;;;;5050320;28;20033;-73
2021/09/04 11:00:52;;;;;;;30.33;21.60;;;;;;;;;;5050379;28;20421;-74
2021/09/04 11:03:20;;;;;;;26.83;21.95;;;;;;;;;;5050430;28;20041;-75
2021/09/04 11:05:46;;;;;;;27.92;22.35;;;;;;;;;;5051430;28;20057;-74
2021/09/04 11:08:21;;;;;;;27.73;20.67;;;;;;;;;;5051180;28;20064;-74
2021/09/04 11:10:48;;;;;;;27.67;20.08;;;;;;;;;;5051483;28;20104;-73
2021/09/04 11:13:14;;;;;;;27.83;21.48;;;;;;;;;;5051803;28;20103;-73
2021/09/04 11:15:43;;;;;;;25.58;20.33;;;;;;;;;;5053685;28;20049;-73
2021/09/04 11:18:09;;;;;;;29.55;21.33;;;;;;;;;;5053653;28;20033;-74
2021/09/04 11:21:01;;;;;;;29.73;23.27;;;;;;;;;;5053410;28;20040;-74
2021/09/04 11:23:29;;;;;;;29.48;22.25;;;;;;;;;;5052248;28;20044;-74
2021/09/04 11:25:55;;;;;;;26.85;21.15;;;;;;;;;;5053567;28;20056;-74
2021/09/04 11:28:28;;;;;;;24.50;19.05;;;;;;;;;;5053259;28;20028;-74
2021/09/04 11:30:54;;;;;;;27.90;19.58;;;;;;;;;;5053149;28;20057;-74
2021/09/04 11:33:20;;;;;;;26.77;19.20;;;;;;;;;;5053216;28;20048;-73
2021/09/04 11:35:47;;;;;;;24.23;18.55;;;;;;;;;;5053757;28;20060;-75
2021/09/04 11:38:13;;;;;;;29.25;21.02;;;;;;;;;;5053397;28;20028;-73
2021/09/04 11:40:39;;;;;;;26.13;18.60;;;;;;;;;;5053068;28;20056;-73
2021/09/04 11:43:06;;;;;;;27.25;20.50;;;;;;;;;;5053325;28;20025;-74
2021/09/04 11:45:33;;;;;;;25.27;19.15;;;;;;;;;;5053076;28;20116;-74
2021/09/04 11:48:06;;;;;;;26.98;18.02;;;;;;;;;;5053007;28;20433;-74
2021/09/04 11:50:33;;;;;;;27.88;20.63;;;;;;;;;;5053491;28;20064;-75
2021/09/04 11:53:09;;;;;;;26.40;19.15;;;;;;;;;;5053008;28;20021;-74
2021/09/04 11:55:35;;;;;;;24.52;18.00;;;;;;;;;;5052997;28;20025;-74
2021/09/04 11:58:03;;;;;;;23.58;17.25;;;;;;;;;;5053132;28;20067;-74
2021/09/04 12:00:35;;;;;;;23.17;17.75;;;;;;;;;;5052941;28;20048;-75
2021/09/04 12:03:03;;;;;;;22.00;16.10;;;;;;;;;;5053195;28;20502;-74
2021/09/04 12:05:30;;;;;;;20.30;15.55;;;;;;;;;;5053166;28;20390;-73
2021/09/04 12:08:01;;;;;;;24.92;17.80;;;;;;;;;;5051432;28;20071;-74
2021/09/04 12:10:28;;;;;;;20.90;16.58;;;;;;;;;;5053385;28;20032;-74
2021/09/04 12:12:58;;;;;;;24.38;17.20;;;;;;;;;;5052859;28;20029;-73
2021/09/04 12:15:24;;;;;;;20.63;16.40;;;;;;;;;;5052820;28;20029;-73
2021/09/04 12:17:52;;;;;;;19.50;14.93;;;;;;;;;;5051486;28;20475;-75
2021/09/04 12:20:19;;;;;;;19.25;14.27;;;;;;;;;;5052771;28;20037;-75
2021/09/04 12:22:45;;;;;;;19.95;15.57;;;;;;;;;;5052745;28;20032;-75
2021/09/04 12:25:24;;;;;;;19.98;16.05;;;;;;;;;;5052732;28;20025;-73
2021/09/04 12:27:56;;;;;;;20.48;15.45;;;;;;;;;;5052994;28;20033;-71
2021/09/04 12:30:22;;;;;;;20.73;14.88;;;;;;;;;;5052864;28;20429;-73
2021/09/04 12:32:48;;;;;;;19.20;14.32;;;;;;;;;;5052891;28;20033;-75
2021/09/04 12:35:14;;;;;;;19.60;14.45;;;;;;;;;;5052897;28;20506;-73
2021/09/04 12:37:40;;;;;;;21.60;15.23;;;;;;;;;;5053645;28;20021;-75
2021/09/04 12:40:11;;;;;;;17.15;12.80;;;;;;;;;;5056345;28;20021;-74
2021/09/04 12:42:38;;;;;;;15.32;12.68;;;;;;;;;;5056328;28;20025;-73
2021/09/04 12:45:05;;;;;;;16.58;12.98;;;;;;;;;;5056255;28;20025;-74
2021/09/04 12:47:41;;;;;;;20.83;16.10;;;;;;;;;;5056490;28;20021;-73
2021/09/04 12:50:07;;;;;;;20.30;13.65;;;;;;;;;;5056095;28;20067;-73
2021/09/04 12:52:33;;;;;;;22.50;15.40;;;;;;;;;;5056427;28;20063;-74
2021/09/04 12:55:00;;;;;;;20.33;13.93;;;;;;;;;;5056369;28;20017;-75
2021/09/04 12:57:27;;;;;;;14.13;10.95;;;;;;;;;;5056049;28;20025;-74
2021/09/04 12:59:53;;;;;;;14.93;11.77;;;;;;;;;;5054676;28;20401;-75
2021/09/04 13:02:22;;;;;;;13.00;9.57;;;;;;;;;;5055962;28;20415;-74
2021/09/04 13:04:48;;;;;;;17.45;12.00;;;;;;;;;;5055907;28;20111;-73
2021/09/04 13:07:16;;;;;;;17.13;12.57;;;;;;;;;;5054349;28;20520;-74
2021/09/04 13:09:42;;;;;;;15.90;13.00;;;;;;;;;;5055572;28;20031;-73
2021/09/04 13:12:08;;;;;;;18.85;13.75;;;;;;;;;;5056201;28;20206;-73
2021/09/04 13:14:36;;;;;;;19.55;12.52;;;;;;;;;;5055735;28;20494;-74
2021/09/04 13:17:03;;;;;;;15.68;12.43;;;;;;;;;;5054488;28;20048;-74
2021/09/04 13:19:29;;;;;;;15.52;12.23;;;;;;;;;;5055150;28;20036;-74
2021/09/04 13:21:55;;;;;;;12.85;10.05;;;;;;;;;;5055860;28;20078;-74
2021/09/04 13:24:21;;;;;;;15.30;11.63;;;;;;;;;;5055556;28;20033;-74
2021/09/04 13:26:47;;;;;;;14.23;11.45;;;;;;;;;;5055771;28;20028;-74
2021/09/04 13:29:13;;;;;;;15.18;11.60;;;;;;;;;;5053661;28;20394;-75
2021/09/04 13:31:43;;;;;;;12.90;10.88;;;;;;;;;;5055580;28;20032;-75
2021/09/04 13:34:10;;;;;;;13.23;10.05;;;;;;;;;;5053828;28;20017;-73
2021/09/04 13:36:36;;;;;;;14.50;10.23;;;;;;;;;;5055572;28;20013;-73
2021/09/04 13:39:02;;;;;;;12.95;9.55;;;;;;;;;;5055531;28;20025;-74
2021/09/04 13:41:28;;;;;;;12.35;9.60;;;;;;;;;;5055444;28;20036;-73
2021/09/04 13:43:54;;;;;;;13.38;9.98;;;;;;;;;;5055119;28;20025;-74
2021/09/04 13:46:20;;;;;;;12.68;9.82;;;;;;;;;;5055347;28;20028;-74
2021/09/04 13:48:47;;;;;;;13.57;9.65;;;;;;;;;;5053025;28;20055;-73
2021/09/04 13:51:13;;;;;;;12.68;9.57;;;;;;;;;;5054313;28;20021;-73
2021/09/04 13:53:39;;;;;;;11.50;8.95;;;;;;;;;;5053775;28;20029;-74
2021/09/04 13:56:05;;;;;;;11.88;9.27;;;;;;;;;;5055137;28;20021;-73
2021/09/04 13:58:31;;;;;;;12.20;8.48;;;;;;;;;;5053440;28;20064;-76
2021/09/04 14:00:57;;;;;;;10.68;8.18;;;;;;;;;;5054621;28;20029;-74
2021/09/04 14:03:23;;;;;;;13.43;9.27;;;;;;;;;;5054528;28;20029;-74
2021/09/04 14:05:49;;;;;;;10.75;7.60;;;;;;;;;;5054476;28;20102;-74
2021/09/04 14:08:16;;;;;;;9.63;7.75;;;;;;;;;;5054035;28;20052;-75
2021/09/04 14:10:42;;;;;;;9.85;7.63;;;;;;;;;;5054392;28;20025;-74
2021/09/04 14:13:08;;;;;;;9.55;7.45;;;;;;;;;;5054623;28;20021;-74
2021/09/04 14:15:33;;;;;;;10.18;6.95;;;;;;;;;;5054482;28;20105;-74
2021/09/04 14:17:59;;;;;;;9.73;7.30;;;;;;;;;;5052988;28;20387;-74